sensor_id;sensor_type;location;lat;lon;timestamp;pressure;altitude;pressure_sealevel;temperature;humidity
14242;BME280;7205;50.864;12.766;2024-03-22T00:00:15;98185.09;;;10.57;100.00
14242;BME280;7205;50.864;12.766;2024-03-22T00:02:42;98185.78;;;10.51;100.00
14242;BME280;7205;50.864;12.766;2024-03-22T00:05:08;98181.44;;;10.42;100.00
14242;BME280;7205;50.864;12.766;2024-03-22T00:07:34;98184.91;;;10.34;100.00
14242;BME280;7205;50.864;12.766;2024-03-22T00:10:02;98178.09;;;10.24;100.00
14242;BME280;7205;50.864;12.766;2024-03-22T00:12:28;98178.56;;;10.11;100.00
14242;BME280;7205;50.864;12.766;2024-03-22T00:14:54;98173.00;;;9.96;100.00
14242;BME280;7205;50.864;12.766;2024-03-22T00:17:22;98166.50;;;9.83;100.00
14242;BME280;7205;50.864;12.766;2024-03-22T00:19:48;98158.03;;;9.71;100.00
14242;BME280;7205;50.864;12.766;2024-03-22T00:22:15;98159.31;;;9.59;100.00
14242;BME280;7205;50.864;12.766;2024-03-22T00:24:41;98153.59;;;9.46;100.00
14242;BME280;7205;50.864;12.766;2024-03-22T00:27:07;98159.31;;;9.34;100.00
14242;BME280;7205;50.864;12.766;2024-03-22T00:29:33;98160.06;;;9.26;100.00
14242;BME280;7205;50.864;12.766;2024-03-22T00:32:00;98153.41;;;9.14;100.00
14242;BME280;7205;50.864;12.766;2024-03-22T00:34:27;98151.84;;;9.04;100.00
14242;BME280;7205;50.864;12.766;2024-03-22T00:36:53;98147.47;;;8.95;100.00
14242;BME280;7205;50.864;12.766;2024-03-22T00:39:19;98151.84;;;8.86;100.00
14242;BME280;7205;50.864;12.766;2024-03-22T00:41:45;98162.84;;;8.81;100.00
14242;BME280;7205;50.864;12.766;2024-03-22T00:44:11;98154.19;;;8.71;100.00
14242;BME280;7205;50.864;12.766;2024-03-22T00:46:38;98149.81;;;8.62;100.00
14242;BME280;7205;50.864;12.766;2024-03-22T00:49:03;98162.75;;;8.56;100.00
14242;BME280;7205;50.864;12.766;2024-03-22T00:51:31;98164.19;;;8.50;100.00
14242;BME280;7205;50.864;12.766;2024-03-22T00:53:57;98157.34;;;8.40;100.00
14242;BME280;7205;50.864;12.766;2024-03-22T00:56:24;98162.06;;;8.36;100.00
14242;BME280;7205;50.864;12.766;2024-03-22T00:58:49;98163.47;;;8.31;100.00
14242;BME280;7205;50.864;12.766;2024-03-22T01:01:16;98160.47;;;8.26;100.00
14242;BME280;7205;50.864;12.766;2024-03-22T01:03:41;98165.16;;;8.22;100.00
14242;BME280;7205;50.864;12.766;2024-03-22T01:06:08;98156.88;;;8.17;100.00
14242;BME280;7205;50.864;12.766;2024-03-22T01:08:35;98151.13;;;8.14;100.00
14242;BME280;7205;50.864;12.766;2024-03-22T01:11:02;98155.84;;;8.10;100.00
14242;BME280;7205;50.864;12.766;2024-03-22T01:13:27;98148.22;;;8.07;100.00
14242;BME280;7205;50.864;12.766;2024-03-22T01:15:54;98147.56;;;8.05;100.00
14242;BME280;7205;50.864;12.766;2024-03-22T01:18:20;98139.66;;;8.05;100.00
14242;BME280;7205;50.864;12.766;2024-03-22T01:20:46;98127.25;;;7.98;100.00
14242;BME280;7205;50.864;12.766;2024-03-22T01:23:12;98127.63;;;8.03;100.00
14242;BME280;7205;50.864;12.766;2024-03-22T01:25:40;98125.28;;;8.00;100.00
14242;BME280;7205;50.864;12.766;2024-03-22T01:28:05;98130.16;;;7.95;100.00
14242;BME280;7205;50.864;12.766;2024-03-22T01:30:32;98130.31;;;7.93;100.00
14242;BME280;7205;50.864;12.766;2024-03-22T01:32:59;98132.94;;;7.93;100.00
14242;BME280;7205;50.864;12.766;2024-03-22T01:35:26;98125.34;;;7.90;100.00
14242;BME280;7205;50.864;12.766;2024-03-22T01:37:51;98117.63;;;7.89;100.00
14242;BME280;7205;50.864;12.766;2024-03-22T01:40:18;98121.91;;;7.90;100.00
14242;BME280;7205;50.864;12.766;2024-03-22T01:42:45;98108.91;;;7.88;100.00
14242;BME280;7205;50.864;12.766;2024-03-22T01:45:13;98113.16;;;7.89;100.00
14242;BME280;7205;50.864;12.766;2024-03-22T01:47:40;98106.81;;;7.92;100.00
14242;BME280;7205;50.864;12.766;2024-03-22T01:50:08;98103.88;;;7.95;100.00
14242;BME280;7205;50.864;12.766;2024-03-22T01:52:34;98094.03;;;7.97;100.00
14242;BME280;7205;50.864;12.766;2024-03-22T01:55:02;98094.13;;;8.05;100.00
14242;BME280;7205;50.864;12.766;2024-03-22T01:57:30;98091.56;;;8.13;100.00
14242;BME280;7205;50.864;12.766;2024-03-22T01:59:59;98080.31;;;8.20;100.00
14242;BME280;7205;50.864;12.766;2024-03-22T02:02:25;98088.47;;;8.27;100.00
14242;BME280;7205;50.864;12.766;2024-03-22T02:04:52;98073.88;;;8.32;100.00
14242;BME280;7205;50.864;12.766;2024-03-22T02:07:17;98074.78;;;8.41;100.00
14242;BME280;7205;50.864;12.766;2024-03-22T02:09:44;98065.31;;;8.48;100.00
14242;BME280;7205;50.864;12.766;2024-03-22T02:12:10;98055.00;;;8.54;100.00
14242;BME280;7205;50.864;12.766;2024-03-22T02:14:37;98052.41;;;8.62;100.00
14242;BME280;7205;50.864;12.766;2024-03-22T02:17:04;98047.53;;;8.67;100.00
14242;BME280;7205;50.864;12.766;2024-03-22T02:19:31;98042.63;;;8.72;100.00
14242;BME280;7205;50.864;12.766;2024-03-22T02:21:56;98034.13;;;8.78;100.00
14242;BME280;7205;50.864;12.766;2024-03-22T02:24:24;98031.19;;;8.81;100.00
14242;BME280;7205;50.864;12.766;2024-03-22T02:26:50;98027.56;;;8.82;100.00
14242;BME280;7205;50.864;12.766;2024-03-22T02:29:17;98026.59;;;8.83;100.00
14242;BME280;7205;50.864;12.766;2024-03-22T02:31:42;98025.59;;;8.84;100.00
14242;BME280;7205;50.864;12.766;2024-03-22T02:34:09;98030.06;;;8.84;100.00
14242;BME280;7205;50.864;12.766;2024-03-22T02:36:35;98022.97;;;8.84;100.00
14242;BME280;7205;50.864;12.766;2024-03-22T02:39:01;98023.13;;;8.83;100.00
14242;BME280;7205;50.864;12.766;2024-03-22T02:41:28;98026.06;;;8.80;100.00
14242;BME280;7205;50.864;12.766;2024-03-22T02:43:55;98021.13;;;8.77;100.00
14242;BME280;7205;50.864;12.766;2024-03-22T02:46:20;98031.13;;;8.73;100.00
14242;BME280;7205;50.864;12.766;2024-03-22T02:48:47;98023.56;;;8.70;100.00
14242;BME280;7205;50.864;12.766;2024-03-22T02:51:13;98011.50;;;8.68;100.00
14242;BME280;7205;50.864;12.766;2024-03-22T02:53:39;98010.03;;;8.65;100.00
14242;BME280;7205;50.864;12.766;2024-03-22T02:56:05;98011.16;;;8.63;100.00
14242;BME280;7205;50.864;12.766;2024-03-22T02:58:33;98005.03;;;8.62;100.00
14242;BME280;7205;50.864;12.766;2024-03-22T03:01:00;98003.09;;;8.64;100.00
14242;BME280;7205;50.864;12.766;2024-03-22T03:03:28;98003.78;;;8.66;100.00
14242;BME280;7205;50.864;12.766;2024-03-22T03:05:53;98010.38;;;8.70;100.00
14242;BME280;7205;50.864;12.766;2024-03-22T03:08:20;97997.22;;;8.70;100.00
14242;BME280;7205;50.864;12.766;2024-03-22T03:10:46;98000.75;;;8.79;100.00
14242;BME280;7205;50.864;12.766;2024-03-22T03:13:12;97998.47;;;8.84;100.00
14242;BME280;7205;50.864;12.766;2024-03-22T03:15:39;97998.00;;;8.88;100.00
14242;BME280;7205;50.864;12.766;2024-03-22T03:18:06;97997.34;;;8.95;100.00
14242;BME280;7205;50.864;12.766;2024-03-22T03:20:32;97983.06;;;8.97;100.00
14242;BME280;7205;50.864;12.766;2024-03-22T03:22:58;97982.59;;;9.02;100.00
14242;BME280;7205;50.864;12.766;2024-03-22T03:25:25;97979.47;;;9.06;100.00
14242;BME280;7205;50.864;12.766;2024-03-22T03:27:51;97974.72;;;9.10;100.00
14242;BME280;7205;50.864;12.766;2024-03-22T03:30:17;97967.34;;;9.13;100.00
14242;BME280;7205;50.864;12.766;2024-03-22T03:32:45;97966.19;;;9.16;100.00
14242;BME280;7205;50.864;12.766;2024-03-22T03:35:11;97965.22;;;9.17;100.00
14242;BME280;7205;50.864;12.766;2024-03-22T03:37:37;97961.44;;;9.19;100.00
14242;BME280;7205;50.864;12.766;2024-03-22T03:40:04;97972.63;;;9.21;100.00
14242;BME280;7205;50.864;12.766;2024-03-22T03:42:31;97974.97;;;9.24;100.00
14242;BME280;7205;50.864;12.766;2024-03-22T03:44:56;97973.13;;;9.25;100.00
14242;BME280;7205;50.864;12.766;2024-03-22T03:47:23;97966.91;;;9.26;100.00
14242;BME280;7205;50.864;12.766;2024-03-22T03:49:50;97962.63;;;9.33;100.00
14242;BME280;7205;50.864;12.766;2024-03-22T03:52:17;97956.56;;;9.32;100.00
14242;BME280;7205;50.864;12.766;2024-03-22T03:54:43;97965.13;;;9.34;100.00
14242;BME280;7205;50.864;12.766;2024-03-22T03:57:10;97956.56;;;9.32;100.00
14242;BME280;7205;50.864;12.766;2024-03-22T03:59:35;97964.13;;;9.35;100.00
14242;BME280;7205;50.864;12.766;2024-03-22T04:02:02;97960.00;;;9.33;100.00
14242;BME280;7205;50.864;12.766;2024-03-22T04:04:28;97966.41;;;9.30;100.00
14242;BME280;7205;50.864;12.766;2024-03-22T04:06:56;97958.84;;;9.27;100.00
14242;BME280;7205;50.864;12.766;2024-03-22T04:09:21;97962.16;;;9.29;100.00
14242;BME280;7205;50.864;12.766;2024-03-22T04:11:48;97958.84;;;9.27;100.00
14242;BME280;7205;50.864;12.766;2024-03-22T04:14:13;97937.91;;;9.26;100.00
14242;BME280;7205;50.864;12.766;2024-03-22T04:16:40;97949.63;;;9.31;100.00
14242;BME280;7205;50.864;12.766;2024-03-22T04:19:06;97947.97;;;9.30;100.00
14242;BME280;7205;50.864;12.766;2024-03-22T04:21:33;97949.63;;;9.31;100.00
14242;BME280;7205;50.864;12.766;2024-03-22T04:24:00;97949.44;;;9.33;100.00
14242;BME280;7205;50.864;12.766;2024-03-22T04:26:27;97952.91;;;9.33;100.00
14242;BME280;7205;50.864;12.766;2024-03-22T04:28:52;97950.28;;;9.33;100.00
14242;BME280;7205;50.864;12.766;2024-03-22T04:31:19;97948.31;;;9.35;99.65
14242;BME280;7205;50.864;12.766;2024-03-22T04:33:45;97944.06;;;9.34;99.33
14242;BME280;7205;50.864;12.766;2024-03-22T04:36:11;97952.59;;;9.36;99.16
14242;BME280;7205;50.864;12.766;2024-03-22T04:38:38;97941.25;;;9.36;98.99
14242;BME280;7205;50.864;12.766;2024-03-22T04:41:06;97938.44;;;9.37;98.97
14242;BME280;7205;50.864;12.766;2024-03-22T04:43:32;97936.63;;;9.38;98.80
14242;BME280;7205;50.864;12.766;2024-03-22T04:45:58;97939.25;;;9.38;98.38
14242;BME280;7205;50.864;12.766;2024-03-22T04:48:24;97930.53;;;9.37;98.11
14242;BME280;7205;50.864;12.766;2024-03-22T04:50:52;97935.81;;;9.37;97.81
14242;BME280;7205;50.864;12.766;2024-03-22T04:53:18;97938.63;;;9.36;98.33
14242;BME280;7205;50.864;12.766;2024-03-22T04:55:46;97940.56;;;9.34;98.54
14242;BME280;7205;50.864;12.766;2024-03-22T04:58:14;97941.88;;;9.38;98.39
14242;BME280;7205;50.864;12.766;2024-03-22T05:00:42;97935.97;;;9.36;97.88
14242;BME280;7205;50.864;12.766;2024-03-22T05:03:07;97936.16;;;9.34;97.89
14242;BME280;7205;50.864;12.766;2024-03-22T05:05:34;97934.31;;;9.35;98.27
14242;BME280;7205;50.864;12.766;2024-03-22T05:08:00;97931.34;;;9.38;98.65
14242;BME280;7205;50.864;12.766;2024-03-22T05:10:27;97936.31;;;9.41;98.56
14242;BME280;7205;50.864;12.766;2024-03-22T05:12:54;97918.69;;;9.41;98.80
14242;BME280;7205;50.864;12.766;2024-03-22T05:15:22;97915.75;;;9.44;98.80
14242;BME280;7205;50.864;12.766;2024-03-22T05:17:48;97917.22;;;9.47;98.96
14242;BME280;7205;50.864;12.766;2024-03-22T05:20:15;97914.25;;;9.50;98.71
14242;BME280;7205;50.864;12.766;2024-03-22T05:22:42;97920.34;;;9.50;98.27
14242;BME280;7205;50.864;12.766;2024-03-22T05:25:09;97908.53;;;9.54;98.20
14242;BME280;7205;50.864;12.766;2024-03-22T05:27:35;97915.25;;;9.57;98.21
14242;BME280;7205;50.864;12.766;2024-03-22T05:30:02;97914.44;;;9.56;97.67
14242;BME280;7205;50.864;12.766;2024-03-22T05:32:31;97905.56;;;9.57;97.83
14242;BME280;7205;50.864;12.766;2024-03-22T05:35:00;97894.50;;;9.62;97.91
14242;BME280;7205;50.864;12.766;2024-03-22T05:37:27;97888.75;;;9.66;100.00
14242;BME280;7205;50.864;12.766;2024-03-22T05:40:17;97885.47;;;9.80;100.00
14242;BME280;7205;50.864;12.766;2024-03-22T05:42:43;97881.00;;;9.97;100.00
14242;BME280;7205;50.864;12.766;2024-03-22T05:45:09;97869.47;;;9.98;100.00
14242;BME280;7205;50.864;12.766;2024-03-22T05:47:36;97867.66;;;9.90;100.00
14242;BME280;7205;50.864;12.766;2024-03-22T05:50:04;97876.25;;;9.92;100.00
14242;BME280;7205;50.864;12.766;2024-03-22T05:52:33;97869.13;;;9.93;100.00
14242;BME280;7205;50.864;12.766;2024-03-22T05:54:59;97874.75;;;9.90;100.00
14242;BME280;7205;50.864;12.766;2024-03-22T05:57:25;97882.19;;;9.94;99.91
14242;BME280;7205;50.864;12.766;2024-03-22T05:59:52;97875.41;;;9.92;98.40
14242;BME280;7205;50.864;12.766;2024-03-22T06:02:18;97867.66;;;9.90;98.26
14242;BME280;7205;50.864;12.766;2024-03-22T06:04:46;97866.50;;;9.93;97.85
14242;BME280;7205;50.864;12.766;2024-03-22T06:07:12;97864.03;;;9.91;98.36
14242;BME280;7205;50.864;12.766;2024-03-22T06:09:40;97858.59;;;9.93;97.41
14242;BME280;7205;50.864;12.766;2024-03-22T06:12:11;97858.63;;;10.09;97.12
14242;BME280;7205;50.864;12.766;2024-03-22T06:14:38;97862.41;;;10.15;96.07
14242;BME280;7205;50.864;12.766;2024-03-22T06:17:03;97860.75;;;10.13;96.83
14242;BME280;7205;50.864;12.766;2024-03-22T06:19:30;97862.91;;;10.26;95.56
14242;BME280;7205;50.864;12.766;2024-03-22T06:21:57;97861.25;;;10.33;95.17
14242;BME280;7205;50.864;12.766;2024-03-22T06:24:24;97858.75;;;10.40;94.66
14242;BME280;7205;50.864;12.766;2024-03-22T06:26:49;97852.59;;;10.47;94.98
14242;BME280;7205;50.864;12.766;2024-03-22T06:29:16;97856.06;;;10.56;94.47
14242;BME280;7205;50.864;12.766;2024-03-22T06:31:42;97855.03;;;10.65;94.27
14242;BME280;7205;50.864;12.766;2024-03-22T06:34:08;97855.00;;;10.73;93.36
14242;BME280;7205;50.864;12.766;2024-03-22T06:36:34;97853.97;;;10.82;92.53
14242;BME280;7205;50.864;12.766;2024-03-22T06:39:02;97844.38;;;10.89;92.40
14242;BME280;7205;50.864;12.766;2024-03-22T06:41:30;97847.97;;;10.96;91.25
14242;BME280;7205;50.864;12.766;2024-03-22T06:43:56;97842.81;;;11.02;90.88
14242;BME280;7205;50.864;12.766;2024-03-22T06:46:22;97850.06;;;11.08;90.34
14242;BME280;7205;50.864;12.766;2024-03-22T06:48:50;97845.09;;;11.13;89.52
14242;BME280;7205;50.864;12.766;2024-03-22T06:51:15;97843.91;;;11.16;88.90
14242;BME280;7205;50.864;12.766;2024-03-22T06:53:42;97845.72;;;11.15;88.38
14242;BME280;7205;50.864;12.766;2024-03-22T06:56:09;97844.16;;;11.29;86.77
14242;BME280;7205;50.864;12.766;2024-03-22T06:58:37;97850.88;;;11.39;85.38
14242;BME280;7205;50.864;12.766;2024-03-22T07:01:02;97848.16;;;11.48;85.42
14242;BME280;7205;50.864;12.766;2024-03-22T07:03:29;97849.78;;;11.57;84.78
14242;BME280;7205;50.864;12.766;2024-03-22T07:05:56;97852.22;;;11.66;84.76
14242;BME280;7205;50.864;12.766;2024-03-22T07:08:23;97855.63;;;11.75;83.63
14242;BME280;7205;50.864;12.766;2024-03-22T07:10:50;97839.69;;;11.83;82.35
14242;BME280;7205;50.864;12.766;2024-03-22T07:13:18;97839.41;;;11.92;81.24
14242;BME280;7205;50.864;12.766;2024-03-22T07:15:44;97848.94;;;12.01;80.32
14242;BME280;7205;50.864;12.766;2024-03-22T07:18:10;97844.41;;;12.10;79.76
14242;BME280;7205;50.864;12.766;2024-03-22T07:20:36;97840.50;;;12.20;79.24
14242;BME280;7205;50.864;12.766;2024-03-22T07:23:03;97842.88;;;12.30;77.93
14242;BME280;7205;50.864;12.766;2024-03-22T07:25:29;97840.78;;;12.40;76.28
14242;BME280;7205;50.864;12.766;2024-03-22T07:27:56;97833.41;;;12.50;74.73
14242;BME280;7205;50.864;12.766;2024-03-22T07:30:23;97831.50;;;12.58;73.41
14242;BME280;7205;50.864;12.766;2024-03-22T07:32:50;97829.13;;;12.63;71.53
14242;BME280;7205;50.864;12.766;2024-03-22T07:35:16;97834.13;;;12.73;72.26
14242;BME280;7205;50.864;12.766;2024-03-22T07:37:43;97834.47;;;12.85;70.82
14242;BME280;7205;50.864;12.766;2024-03-22T07:40:09;97817.94;;;12.97;71.48
14242;BME280;7205;50.864;12.766;2024-03-22T07:42:35;97820.19;;;13.15;71.90
14242;BME280;7205;50.864;12.766;2024-03-22T07:45:01;97818.31;;;13.30;70.71
14242;BME280;7205;50.864;12.766;2024-03-22T07:47:29;97813.19;;;13.43;69.34
14242;BME280;7205;50.864;12.766;2024-03-22T07:49:55;97809.38;;;13.52;67.50
14242;BME280;7205;50.864;12.766;2024-03-22T07:52:21;97808.06;;;13.62;66.91
14242;BME280;7205;50.864;12.766;2024-03-22T07:54:47;97801.59;;;13.71;65.76
14242;BME280;7205;50.864;12.766;2024-03-22T07:57:14;97812.84;;;13.73;64.97
14242;BME280;7205;50.864;12.766;2024-03-22T07:59:39;97801.94;;;13.83;64.60
14242;BME280;7205;50.864;12.766;2024-03-22T08:02:13;97808.91;;;13.91;63.78
14242;BME280;7205;50.864;12.766;2024-03-22T08:04:42;97816.75;;;13.99;64.34
14242;BME280;7205;50.864;12.766;2024-03-22T08:07:09;97814.13;;;14.05;64.80
14242;BME280;7205;50.864;12.766;2024-03-22T08:09:34;97811.63;;;13.97;63.47
14242;BME280;7205;50.864;12.766;2024-03-22T08:12:01;97801.09;;;14.10;61.23
14242;BME280;7205;50.864;12.766;2024-03-22T08:14:26;97802.19;;;14.16;61.61
14242;BME280;7205;50.864;12.766;2024-03-22T08:16:53;97802.19;;;14.16;60.31
14242;BME280;7205;50.864;12.766;2024-03-22T08:19:19;97800.75;;;14.13;59.13
14242;BME280;7205;50.864;12.766;2024-03-22T08:21:50;97794.41;;;14.14;58.50
14242;BME280;7205;50.864;12.766;2024-03-22T08:24:15;97786.03;;;14.17;58.28
14242;BME280;7205;50.864;12.766;2024-03-22T08:26:42;97783.38;;;14.17;57.13
14242;BME280;7205;50.864;12.766;2024-03-22T08:29:12;97786.47;;;14.21;58.19
14242;BME280;7205;50.864;12.766;2024-03-22T08:31:39;97791.03;;;14.27;57.87
14242;BME280;7205;50.864;12.766;2024-03-22T08:34:05;97794.13;;;14.30;57.17
14242;BME280;7205;50.864;12.766;2024-03-22T08:36:32;97793.94;;;14.32;56.93
14242;BME280;7205;50.864;12.766;2024-03-22T08:38:59;97800.50;;;14.36;56.92
14242;BME280;7205;50.864;12.766;2024-03-22T08:41:25;97793.81;;;14.40;56.93
14242;BME280;7205;50.864;12.766;2024-03-22T08:43:51;97795.47;;;14.47;57.03
14242;BME280;7205;50.864;12.766;2024-03-22T08:46:19;97794.88;;;14.52;56.41
14242;BME280;7205;50.864;12.766;2024-03-22T08:48:46;97793.47;;;14.56;55.71
14242;BME280;7205;50.864;12.766;2024-03-22T08:51:13;97791.44;;;14.58;55.58
14242;BME280;7205;50.864;12.766;2024-03-22T08:53:39;97784.53;;;14.63;55.69
14242;BME280;7205;50.864;12.766;2024-03-22T08:56:07;97780.66;;;14.72;55.31
14242;BME280;7205;50.864;12.766;2024-03-22T08:58:33;97768.63;;;14.76;54.48
14242;BME280;7205;50.864;12.766;2024-03-22T09:00:59;97772.31;;;14.82;55.14
14242;BME280;7205;50.864;12.766;2024-03-22T09:03:25;97761.31;;;14.85;54.59
14242;BME280;7205;50.864;12.766;2024-03-22T09:05:52;97763.16;;;14.84;53.64
14242;BME280;7205;50.864;12.766;2024-03-22T09:08:18;97765.59;;;14.86;54.03
14242;BME280;7205;50.864;12.766;2024-03-22T09:10:45;97766.03;;;14.89;54.20
14242;BME280;7205;50.864;12.766;2024-03-22T09:13:12;97759.09;;;14.95;54.70
14242;BME280;7205;50.864;12.766;2024-03-22T09:15:38;97759.31;;;15.00;54.78
14242;BME280;7205;50.864;12.766;2024-03-22T09:18:04;97748.91;;;15.05;54.45
14242;BME280;7205;50.864;12.766;2024-03-22T09:20:31;97751.97;;;15.08;53.97
14242;BME280;7205;50.864;12.766;2024-03-22T09:22:57;97751.16;;;15.15;54.02
14242;BME280;7205;50.864;12.766;2024-03-22T09:25:24;97745.03;;;15.21;54.41
14242;BME280;7205;50.864;12.766;2024-03-22T09:27:49;97743.41;;;15.26;53.77
14242;BME280;7205;50.864;12.766;2024-03-22T09:30:18;97743.84;;;15.30;53.22
14242;BME280;7205;50.864;12.766;2024-03-22T09:32:43;97743.63;;;15.31;52.79
14242;BME280;7205;50.864;12.766;2024-03-22T09:35:11;97738.72;;;15.35;53.14
14242;BME280;7205;50.864;12.766;2024-03-22T09:37:39;97734.22;;;15.35;52.89
14242;BME280;7205;50.864;12.766;2024-03-22T09:40:07;97734.22;;;15.35;53.16
14242;BME280;7205;50.864;12.766;2024-03-22T09:42:33;97726.25;;;15.35;53.11
14242;BME280;7205;50.864;12.766;2024-03-22T09:45:08;97726.84;;;15.37;53.69
14242;BME280;7205;50.864;12.766;2024-03-22T09:47:36;97723.63;;;15.42;53.73
14242;BME280;7205;50.864;12.766;2024-03-22T09:50:06;97725.25;;;15.49;54.62
14242;BME280;7205;50.864;12.766;2024-03-22T09:52:33;97726.28;;;15.55;53.90
14242;BME280;7205;50.864;12.766;2024-03-22T09:55:00;97724.66;;;15.60;53.81
14242;BME280;7205;50.864;12.766;2024-03-22T09:57:29;97706.84;;;15.67;54.17
14242;BME280;7205;50.864;12.766;2024-03-22T09:59:56;97703.34;;;15.73;53.53
14242;BME280;7205;50.864;12.766;2024-03-22T10:02:26;97707.44;;;15.76;53.01
14242;BME280;7205;50.864;12.766;2024-03-22T10:04:57;97700.47;;;15.75;52.91
14242;BME280;7205;50.864;12.766;2024-03-22T10:07:23;97689.41;;;15.78;53.00
14242;BME280;7205;50.864;12.766;2024-03-22T10:09:51;97699.06;;;15.85;53.33
14242;BME280;7205;50.864;12.766;2024-03-22T10:12:17;97695.56;;;15.91;53.39
14242;BME280;7205;50.864;12.766;2024-03-22T10:14:46;97696.78;;;16.02;53.52
14242;BME280;7205;50.864;12.766;2024-03-22T10:17:13;97687.72;;;16.09;53.09
14242;BME280;7205;50.864;12.766;2024-03-22T10:19:40;97691.41;;;16.15;52.66
14242;BME280;7205;50.864;12.766;2024-03-22T10:22:08;97684.03;;;16.17;52.35
14242;BME280;7205;50.864;12.766;2024-03-22T10:24:35;97691.56;;;16.26;52.40
14242;BME280;7205;50.864;12.766;2024-03-22T10:27:04;97679.88;;;16.34;52.12
14242;BME280;7205;50.864;12.766;2024-03-22T10:29:32;97688.25;;;16.44;52.16
14242;BME280;7205;50.864;12.766;2024-03-22T10:32:01;97672.47;;;16.49;51.33
14242;BME280;7205;50.864;12.766;2024-03-22T10:34:28;97678.00;;;16.54;51.31
14242;BME280;7205;50.864;12.766;2024-03-22T10:36:55;97658.47;;;16.60;51.19
14242;BME280;7205;50.864;12.766;2024-03-22T10:39:25;97659.69;;;16.64;51.47
14242;BME280;7205;50.864;12.766;2024-03-22T10:41:51;97665.59;;;16.73;50.79
14242;BME280;7205;50.864;12.766;2024-03-22T10:44:18;97663.50;;;16.75;50.96
14242;BME280;7205;50.864;12.766;2024-03-22T10:46:45;97656.91;;;16.84;50.85
14242;BME280;7205;50.864;12.766;2024-03-22T10:49:15;97654.22;;;16.90;50.18
14242;BME280;7205;50.864;12.766;2024-03-22T10:51:46;97652.53;;;16.96;49.77
14242;BME280;7205;50.864;12.766;2024-03-22T10:54:18;97649.59;;;17.04;49.93
14242;BME280;7205;50.864;12.766;2024-03-22T10:56:46;97640.94;;;17.08;49.04
14242;BME280;7205;50.864;12.766;2024-03-22T10:59:14;97636.38;;;17.15;48.98
14242;BME280;7205;50.864;12.766;2024-03-22T11:01:45;97632.44;;;17.24;49.02
14242;BME280;7205;50.864;12.766;2024-03-22T11:04:11;97627.81;;;17.38;49.26
14242;BME280;7205;50.864;12.766;2024-03-22T11:06:37;97626.66;;;17.52;49.07
14242;BME280;7205;50.864;12.766;2024-03-22T11:09:05;97625.81;;;17.58;48.22
14242;BME280;7205;50.864;12.766;2024-03-22T11:11:31;97618.91;;;17.69;48.32
14242;BME280;7205;50.864;12.766;2024-03-22T11:14:04;97617.38;;;17.79;47.88
14242;BME280;7205;50.864;12.766;2024-03-22T11:16:29;97609.28;;;17.86;47.46
14242;BME280;7205;50.864;12.766;2024-03-22T11:18:56;97614.41;;;17.87;46.75
14242;BME280;7205;50.864;12.766;2024-03-22T11:21:22;97607.22;;;17.88;46.35
14242;BME280;7205;50.864;12.766;2024-03-22T11:23:49;97603.03;;;17.92;46.88
14242;BME280;7205;50.864;12.766;2024-03-22T11:26:15;97594.84;;;17.93;46.84
14242;BME280;7205;50.864;12.766;2024-03-22T11:28:45;97592.88;;;18.00;46.75
14242;BME280;7205;50.864;12.766;2024-03-22T11:31:12;97593.19;;;18.10;47.05
14242;BME280;7205;50.864;12.766;2024-03-22T11:33:39;97593.13;;;18.17;45.94
14242;BME280;7205;50.864;12.766;2024-03-22T11:36:05;97584.28;;;18.16;45.74
14242;BME280;7205;50.864;12.766;2024-03-22T11:38:32;97576.88;;;18.18;45.79
14242;BME280;7205;50.864;12.766;2024-03-22T11:40:59;97577.66;;;18.19;45.48
14242;BME280;7205;50.864;12.766;2024-03-22T11:43:37;97572.53;;;18.17;45.87
14242;BME280;7205;50.864;12.766;2024-03-22T11:46:03;97579.31;;;18.20;45.98
14242;BME280;7205;50.864;12.766;2024-03-22T11:48:31;97563.41;;;18.25;45.85
14242;BME280;7205;50.864;12.766;2024-03-22T11:50:57;97565.03;;;18.26;45.36
14242;BME280;7205;50.864;12.766;2024-03-22T11:53:25;97564.34;;;18.30;45.52
14242;BME280;7205;50.864;12.766;2024-03-22T11:55:51;97557.28;;;18.36;45.54
14242;BME280;7205;50.864;12.766;2024-03-22T11:58:18;97562.63;;;18.36;45.03
14242;BME280;7205;50.864;12.766;2024-03-22T12:00:44;97554.16;;;18.39;45.38
14242;BME280;7205;50.864;12.766;2024-03-22T12:03:10;97549.13;;;18.49;46.38
14242;BME280;7205;50.864;12.766;2024-03-22T12:05:40;97552.06;;;18.59;45.70
14242;BME280;7205;50.864;12.766;2024-03-22T12:08:07;97543.13;;;18.65;45.47
14242;BME280;7205;50.864;12.766;2024-03-22T12:10:32;97545.81;;;18.65;44.63
14242;BME280;7205;50.864;12.766;2024-03-22T12:13:00;97538.25;;;18.62;44.99
14242;BME280;7205;50.864;12.766;2024-03-22T12:15:26;97535.22;;;18.58;44.77
14242;BME280;7205;50.864;12.766;2024-03-22T12:17:53;97536.22;;;18.57;45.09
14242;BME280;7205;50.864;12.766;2024-03-22T12:20:18;97534.25;;;18.53;44.96
14242;BME280;7205;50.864;12.766;2024-03-22T12:22:47;97527.28;;;18.52;45.20
14242;BME280;7205;50.864;12.766;2024-03-22T12:25:13;97516.22;;;18.48;44.98
14242;BME280;7205;50.864;12.766;2024-03-22T12:27:39;97525.38;;;18.41;44.63
14242;BME280;7205;50.864;12.766;2024-03-22T12:30:06;97518.47;;;18.33;44.79
14242;BME280;7205;50.864;12.766;2024-03-22T12:32:33;97518.09;;;18.30;45.12
14242;BME280;7205;50.864;12.766;2024-03-22T12:34:59;97514.00;;;18.27;45.43
14242;BME280;7205;50.864;12.766;2024-03-22T12:37:26;97511.78;;;18.24;45.82
14242;BME280;7205;50.864;12.766;2024-03-22T12:39:53;97506.44;;;18.24;46.02
14242;BME280;7205;50.864;12.766;2024-03-22T12:42:20;97496.91;;;18.17;45.57
14242;BME280;7205;50.864;12.766;2024-03-22T12:44:46;97497.41;;;18.07;45.61
14242;BME280;7205;50.864;12.766;2024-03-22T12:47:12;97484.47;;;17.93;45.95
14242;BME280;7205;50.864;12.766;2024-03-22T12:49:38;97488.94;;;17.81;46.24
14242;BME280;7205;50.864;12.766;2024-03-22T12:52:05;97482.25;;;17.72;46.89
14242;BME280;7205;50.864;12.766;2024-03-22T12:54:31;97482.53;;;17.64;47.30
14242;BME280;7205;50.864;12.766;2024-03-22T12:56:59;97490.78;;;17.62;47.74